<?xml version="1.0" encoding="UTF-8" standalone="no" ?>
<gpx xmlns="http://www.topografix.com/GPX/1/1" xmlns:xsi="http://www.w3.org/2001/XMLSchema-instance" xsi:schemaLocation="http://www.topografix.com/GPX/1/1 http://www.topografix.com/GPX/1/1/gpx.xsd" version="1.1" creator="VisuGPX - https://www.visugpx.com">
  <metadata>
    <name>Greo Bleue</name>
  </metadata>
  <trk>
    <name><![CDATA[Greo Bleue_1]]></name>
    <trkseg>
      <trkpt lat="43.83133" lon="6.95179">
        <ele>1400.3</ele>
        <time>2021-01-06T11:16:29Z</time>
      </trkpt>
      <trkpt lat="43.83133" lon="6.95179">
        <ele>1405.1</ele>
        <time>2021-01-06T11:16:30Z</time>
      </trkpt>
      <trkpt lat="43.83133" lon="6.95179">
        <ele>1407.99</ele>
        <time>2021-01-06T11:16:33Z</time>
      </trkpt>
      <trkpt lat="43.83132" lon="6.95179">
        <ele>1405.1</ele>
        <time>2021-01-06T11:16:35Z</time>
      </trkpt>
      <trkpt lat="43.8313" lon="6.95179">
        <ele>1406.55</ele>
        <time>2021-01-06T11:16:49Z</time>
      </trkpt>
      <trkpt lat="43.83132" lon="6.95177">
        <ele>1406.55</ele>
        <time>2021-01-06T11:17:22Z</time>
      </trkpt>
      <trkpt lat="43.83131" lon="6.95178">
        <ele>1405.1</ele>
        <time>2021-01-06T11:17:24Z</time>
      </trkpt>
      <trkpt lat="43.83133" lon="6.95179">
        <ele>1406.55</ele>
        <time>2021-01-06T11:17:47Z</time>
      </trkpt>
      <trkpt lat="43.8314" lon="6.95174">
        <ele>1405.1</ele>
        <time>2021-01-06T11:17:59Z</time>
      </trkpt>
      <trkpt lat="43.8314" lon="6.95175">
        <ele>1406.55</ele>
        <time>2021-01-06T11:18:30Z</time>
      </trkpt>
      <trkpt lat="43.83142" lon="6.95176">
        <ele>1402.7</ele>
        <time>2021-01-06T11:18:37Z</time>
      </trkpt>
      <trkpt lat="43.83142" lon="6.95176">
        <ele>1402.7</ele>
        <time>2021-01-06T11:18:38Z</time>
      </trkpt>
      <trkpt lat="43.83143" lon="6.95175">
        <ele>1407.51</ele>
        <time>2021-01-06T11:18:39Z</time>
      </trkpt>
      <trkpt lat="43.83139" lon="6.95172">
        <ele>1405.1</ele>
        <time>2021-01-06T11:18:50Z</time>
      </trkpt>
      <trkpt lat="43.83141" lon="6.95172">
        <ele>1404.62</ele>
        <time>2021-01-06T11:19:12Z</time>
      </trkpt>
      <trkpt lat="43.8314" lon="6.95172">
        <ele>1406.07</ele>
        <time>2021-01-06T11:19:15Z</time>
      </trkpt>
      <trkpt lat="43.83139" lon="6.95172">
        <ele>1410.39</ele>
        <time>2021-01-06T11:19:26Z</time>
      </trkpt>
      <trkpt lat="43.83139" lon="6.95172">
        <ele>1406.07</ele>
        <time>2021-01-06T11:19:27Z</time>
      </trkpt>
      <trkpt lat="43.83138" lon="6.95172">
        <ele>1403.66</ele>
        <time>2021-01-06T11:19:35Z</time>
      </trkpt>
      <trkpt lat="43.83138" lon="6.95172">
        <ele>1407.03</ele>
        <time>2021-01-06T11:19:36Z</time>
      </trkpt>
      <trkpt lat="43.83138" lon="6.95172">
        <ele>1405.1</ele>
        <time>2021-01-06T11:19:37Z</time>
      </trkpt>
      <trkpt lat="43.83137" lon="6.95171">
        <ele>1405.58</ele>
        <time>2021-01-06T11:19:49Z</time>
      </trkpt>
      <trkpt lat="43.83136" lon="6.9517">
        <ele>1407.03</ele>
        <time>2021-01-06T11:19:54Z</time>
      </trkpt>
      <trkpt lat="43.83137" lon="6.9517">
        <ele>1405.1</ele>
        <time>2021-01-06T11:19:57Z</time>
      </trkpt>
      <trkpt lat="43.83137" lon="6.95172">
        <ele>1402.22</ele>
        <time>2021-01-06T11:20:10Z</time>
      </trkpt>
      <trkpt lat="43.83137" lon="6.95172">
        <ele>1402.22</ele>
        <time>2021-01-06T11:20:11Z</time>
      </trkpt>
      <trkpt lat="43.83137" lon="6.95173">
        <ele>1408.47</ele>
        <time>2021-01-06T11:20:12Z</time>
      </trkpt>
      <trkpt lat="43.83137" lon="6.95173">
        <ele>1406.07</ele>
        <time>2021-01-06T11:20:13Z</time>
      </trkpt>
      <trkpt lat="43.83136" lon="6.95173">
        <ele>1404.62</ele>
        <time>2021-01-06T11:20:16Z</time>
      </trkpt>
      <trkpt lat="43.83136" lon="6.95173">
        <ele>1407.03</ele>
        <time>2021-01-06T11:20:19Z</time>
      </trkpt>
      <trkpt lat="43.83136" lon="6.95173">
        <ele>1405.1</ele>
        <time>2021-01-06T11:20:21Z</time>
      </trkpt>
      <trkpt lat="43.83136" lon="6.95172">
        <ele>1406.55</ele>
        <time>2021-01-06T11:20:25Z</time>
      </trkpt>
      <trkpt lat="43.83136" lon="6.95172">
        <ele>1405.58</ele>
        <time>2021-01-06T11:20:31Z</time>
      </trkpt>
      <trkpt lat="43.83135" lon="6.9517">
        <ele>1405.58</ele>
        <time>2021-01-06T11:20:56Z</time>
      </trkpt>
      <trkpt lat="43.83138" lon="6.95173">
        <ele>1405.58</ele>
        <time>2021-01-06T11:21:21Z</time>
      </trkpt>
      <trkpt lat="43.83137" lon="6.9517">
        <ele>1402.22</ele>
        <time>2021-01-06T11:21:30Z</time>
      </trkpt>
      <trkpt lat="43.83137" lon="6.9517">
        <ele>1404.14</ele>
        <time>2021-01-06T11:21:31Z</time>
      </trkpt>
      <trkpt lat="43.83137" lon="6.95169">
        <ele>1407.99</ele>
        <time>2021-01-06T11:21:32Z</time>
      </trkpt>
      <trkpt lat="43.83137" lon="6.95169">
        <ele>1405.58</ele>
        <time>2021-01-06T11:21:33Z</time>
      </trkpt>
      <trkpt lat="43.83137" lon="6.95173">
        <ele>1405.58</ele>
        <time>2021-01-06T11:21:37Z</time>
      </trkpt>
      <trkpt lat="43.83136" lon="6.95184">
        <ele>1404.62</ele>
        <time>2021-01-06T11:21:42Z</time>
      </trkpt>
      <trkpt lat="43.83141" lon="6.9523">
        <ele>1404.14</ele>
        <time>2021-01-06T11:21:54Z</time>
      </trkpt>
      <trkpt lat="43.83143" lon="6.95245">
        <ele>1404.14</ele>
        <time>2021-01-06T11:21:59Z</time>
      </trkpt>
      <trkpt lat="43.83142" lon="6.95257">
        <ele>1405.58</ele>
        <time>2021-01-06T11:22:03Z</time>
      </trkpt>
      <trkpt lat="43.8314" lon="6.95276">
        <ele>1404.62</ele>
        <time>2021-01-06T11:22:09Z</time>
      </trkpt>
      <trkpt lat="43.83134" lon="6.95299">
        <ele>1404.62</ele>
        <time>2021-01-06T11:22:16Z</time>
      </trkpt>
      <trkpt lat="43.83109" lon="6.95336">
        <ele>1406.55</ele>
        <time>2021-01-06T11:22:29Z</time>
      </trkpt>
      <trkpt lat="43.831" lon="6.95342">
        <ele>1407.03</ele>
        <time>2021-01-06T11:22:34Z</time>
      </trkpt>
      <trkpt lat="43.83094" lon="6.95344">
        <ele>1407.03</ele>
        <time>2021-01-06T11:22:38Z</time>
      </trkpt>
      <trkpt lat="43.83073" lon="6.95341">
        <ele>1408.95</ele>
        <time>2021-01-06T11:22:49Z</time>
      </trkpt>
      <trkpt lat="43.83055" lon="6.95332">
        <ele>1408.95</ele>
        <time>2021-01-06T11:22:59Z</time>
      </trkpt>
      <trkpt lat="43.83049" lon="6.95329">
        <ele>1408.95</ele>
        <time>2021-01-06T11:23:02Z</time>
      </trkpt>
      <trkpt lat="43.83027" lon="6.95319">
        <ele>1408.47</ele>
        <time>2021-01-06T11:23:13Z</time>
      </trkpt>
      <trkpt lat="43.83009" lon="6.95312">
        <ele>1408.47</ele>
        <time>2021-01-06T11:23:21Z</time>
      </trkpt>
      <trkpt lat="43.82978" lon="6.953">
        <ele>1408.95</ele>
        <time>2021-01-06T11:23:34Z</time>
      </trkpt>
      <trkpt lat="43.82962" lon="6.95293">
        <ele>1408.95</ele>
        <time>2021-01-06T11:23:42Z</time>
      </trkpt>
      <trkpt lat="43.82954" lon="6.95288">
        <ele>1409.91</ele>
        <time>2021-01-06T11:23:46Z</time>
      </trkpt>
      <trkpt lat="43.82946" lon="6.95284">
        <ele>1410.39</ele>
        <time>2021-01-06T11:23:52Z</time>
      </trkpt>
      <trkpt lat="43.82933" lon="6.95278">
        <ele>1411.83</ele>
        <time>2021-01-06T11:24:02Z</time>
      </trkpt>
      <trkpt lat="43.82921" lon="6.95271">
        <ele>1413.28</ele>
        <time>2021-01-06T11:24:13Z</time>
      </trkpt>
      <trkpt lat="43.82914" lon="6.95266">
        <ele>1412.31</ele>
        <time>2021-01-06T11:24:18Z</time>
      </trkpt>
      <trkpt lat="43.82903" lon="6.95262">
        <ele>1412.79</ele>
        <time>2021-01-06T11:24:24Z</time>
      </trkpt>
      <trkpt lat="43.82891" lon="6.95256">
        <ele>1414.24</ele>
        <time>2021-01-06T11:24:30Z</time>
      </trkpt>
      <trkpt lat="43.82873" lon="6.9525">
        <ele>1414.72</ele>
        <time>2021-01-06T11:24:39Z</time>
      </trkpt>
      <trkpt lat="43.82871" lon="6.95249">
        <ele>1415.2</ele>
        <time>2021-01-06T11:24:41Z</time>
      </trkpt>
      <trkpt lat="43.82856" lon="6.9524">
        <ele>1417.12</ele>
        <time>2021-01-06T11:24:52Z</time>
      </trkpt>
      <trkpt lat="43.82844" lon="6.95236">
        <ele>1416.64</ele>
        <time>2021-01-06T11:25:00Z</time>
      </trkpt>
      <trkpt lat="43.82822" lon="6.95229">
        <ele>1416.64</ele>
        <time>2021-01-06T11:25:10Z</time>
      </trkpt>
      <trkpt lat="43.8282" lon="6.95228">
        <ele>1416.64</ele>
        <time>2021-01-06T11:25:11Z</time>
      </trkpt>
      <trkpt lat="43.82815" lon="6.95226">
        <ele>1418.08</ele>
        <time>2021-01-06T11:25:14Z</time>
      </trkpt>
      <trkpt lat="43.82801" lon="6.95223">
        <ele>1418.08</ele>
        <time>2021-01-06T11:25:22Z</time>
      </trkpt>
      <trkpt lat="43.82773" lon="6.95215">
        <ele>1419.52</ele>
        <time>2021-01-06T11:25:37Z</time>
      </trkpt>
      <trkpt lat="43.82765" lon="6.95212">
        <ele>1419.52</ele>
        <time>2021-01-06T11:25:42Z</time>
      </trkpt>
      <trkpt lat="43.82749" lon="6.95206">
        <ele>1420.49</ele>
        <time>2021-01-06T11:25:53Z</time>
      </trkpt>
      <trkpt lat="43.82734" lon="6.95201">
        <ele>1421.45</ele>
        <time>2021-01-06T11:26:04Z</time>
      </trkpt>
      <trkpt lat="43.82728" lon="6.95198">
        <ele>1422.41</ele>
        <time>2021-01-06T11:26:08Z</time>
      </trkpt>
      <trkpt lat="43.82724" lon="6.95197">
        <ele>1422.41</ele>
        <time>2021-01-06T11:26:10Z</time>
      </trkpt>
      <trkpt lat="43.82709" lon="6.95194">
        <ele>1423.37</ele>
        <time>2021-01-06T11:26:20Z</time>
      </trkpt>
      <trkpt lat="43.82697" lon="6.95195">
        <ele>1423.85</ele>
        <time>2021-01-06T11:26:29Z</time>
      </trkpt>
      <trkpt lat="43.82686" lon="6.95195">
        <ele>1425.29</ele>
        <time>2021-01-06T11:26:38Z</time>
      </trkpt>
      <trkpt lat="43.82671" lon="6.95197">
        <ele>1425.29</ele>
        <time>2021-01-06T11:26:47Z</time>
      </trkpt>
      <trkpt lat="43.82644" lon="6.952">
        <ele>1426.25</ele>
        <time>2021-01-06T11:26:59Z</time>
      </trkpt>
      <trkpt lat="43.82621" lon="6.95202">
        <ele>1426.25</ele>
        <time>2021-01-06T11:27:09Z</time>
      </trkpt>
      <trkpt lat="43.82598" lon="6.95203">
        <ele>1426.73</ele>
        <time>2021-01-06T11:27:19Z</time>
      </trkpt>
      <trkpt lat="43.82579" lon="6.95201">
        <ele>1427.21</ele>
        <time>2021-01-06T11:27:29Z</time>
      </trkpt>
      <trkpt lat="43.82568" lon="6.95199">
        <ele>1427.7</ele>
        <time>2021-01-06T11:27:35Z</time>
      </trkpt>
      <trkpt lat="43.82556" lon="6.95197">
        <ele>1428.66</ele>
        <time>2021-01-06T11:27:43Z</time>
      </trkpt>
      <trkpt lat="43.82542" lon="6.9519">
        <ele>1429.14</ele>
        <time>2021-01-06T11:27:52Z</time>
      </trkpt>
      <trkpt lat="43.82537" lon="6.95189">
        <ele>1429.62</ele>
        <time>2021-01-06T11:27:56Z</time>
      </trkpt>
      <trkpt lat="43.82531" lon="6.95186">
        <ele>1430.1</ele>
        <time>2021-01-06T11:28:01Z</time>
      </trkpt>
      <trkpt lat="43.82516" lon="6.95177">
        <ele>1432.02</ele>
        <time>2021-01-06T11:28:14Z</time>
      </trkpt>
      <trkpt lat="43.82503" lon="6.95175">
        <ele>1432.98</ele>
        <time>2021-01-06T11:28:23Z</time>
      </trkpt>
      <trkpt lat="43.82496" lon="6.95176">
        <ele>1434.42</ele>
        <time>2021-01-06T11:28:30Z</time>
      </trkpt>
      <trkpt lat="43.8249" lon="6.95178">
        <ele>1434.91</ele>
        <time>2021-01-06T11:28:35Z</time>
      </trkpt>
      <trkpt lat="43.82489" lon="6.95179">
        <ele>1435.87</ele>
        <time>2021-01-06T11:28:37Z</time>
      </trkpt>
      <trkpt lat="43.82484" lon="6.95184">
        <ele>1437.31</ele>
        <time>2021-01-06T11:28:42Z</time>
      </trkpt>
      <trkpt lat="43.82484" lon="6.95191">
        <ele>1438.27</ele>
        <time>2021-01-06T11:28:46Z</time>
      </trkpt>
      <trkpt lat="43.82485" lon="6.95198">
        <ele>1438.75</ele>
        <time>2021-01-06T11:28:51Z</time>
      </trkpt>
      <trkpt lat="43.82487" lon="6.95205">
        <ele>1439.23</ele>
        <time>2021-01-06T11:28:56Z</time>
      </trkpt>
      <trkpt lat="43.82488" lon="6.9521">
        <ele>1439.23</ele>
        <time>2021-01-06T11:29:00Z</time>
      </trkpt>
      <trkpt lat="43.82494" lon="6.95228">
        <ele>1440.67</ele>
        <time>2021-01-06T11:29:14Z</time>
      </trkpt>
      <trkpt lat="43.82497" lon="6.9524">
        <ele>1441.63</ele>
        <time>2021-01-06T11:29:23Z</time>
      </trkpt>
      <trkpt lat="43.82502" lon="6.95261">
        <ele>1443.08</ele>
        <time>2021-01-06T11:29:37Z</time>
      </trkpt>
      <trkpt lat="43.82505" lon="6.95276">
        <ele>1444.52</ele>
        <time>2021-01-06T11:29:47Z</time>
      </trkpt>
      <trkpt lat="43.82509" lon="6.95289">
        <ele>1445.96</ele>
        <time>2021-01-06T11:29:56Z</time>
      </trkpt>
      <trkpt lat="43.82519" lon="6.9531">
        <ele>1446.92</ele>
        <time>2021-01-06T11:30:08Z</time>
      </trkpt>
      <trkpt lat="43.82522" lon="6.95318">
        <ele>1447.88</ele>
        <time>2021-01-06T11:30:13Z</time>
      </trkpt>
      <trkpt lat="43.8253" lon="6.95331">
        <ele>1448.84</ele>
        <time>2021-01-06T11:30:22Z</time>
      </trkpt>
      <trkpt lat="43.82543" lon="6.95347">
        <ele>1449.81</ele>
        <time>2021-01-06T11:30:33Z</time>
      </trkpt>
      <trkpt lat="43.82549" lon="6.95353">
        <ele>1447.88</ele>
        <time>2021-01-06T11:30:38Z</time>
      </trkpt>
      <trkpt lat="43.82551" lon="6.95355">
        <ele>1451.73</ele>
        <time>2021-01-06T11:30:40Z</time>
      </trkpt>
      <trkpt lat="43.82555" lon="6.9536">
        <ele>1449.32</ele>
        <time>2021-01-06T11:30:43Z</time>
      </trkpt>
      <trkpt lat="43.8257" lon="6.95371">
        <ele>1449.32</ele>
        <time>2021-01-06T11:30:51Z</time>
      </trkpt>
      <trkpt lat="43.82602" lon="6.9538">
        <ele>1447.88</ele>
        <time>2021-01-06T11:31:03Z</time>
      </trkpt>
      <trkpt lat="43.82629" lon="6.95368">
        <ele>1447.4</ele>
        <time>2021-01-06T11:31:13Z</time>
      </trkpt>
      <trkpt lat="43.82635" lon="6.95367">
        <ele>1447.4</ele>
        <time>2021-01-06T11:31:15Z</time>
      </trkpt>
      <trkpt lat="43.82655" lon="6.95364">
        <ele>1447.4</ele>
        <time>2021-01-06T11:31:23Z</time>
      </trkpt>
      <trkpt lat="43.82664" lon="6.95367">
        <ele>1448.84</ele>
        <time>2021-01-06T11:31:27Z</time>
      </trkpt>
      <trkpt lat="43.82683" lon="6.95377">
        <ele>1449.32</ele>
        <time>2021-01-06T11:31:36Z</time>
      </trkpt>
      <trkpt lat="43.82704" lon="6.95387">
        <ele>1449.32</ele>
        <time>2021-01-06T11:31:43Z</time>
      </trkpt>
      <trkpt lat="43.82713" lon="6.95393">
        <ele>1449.32</ele>
        <time>2021-01-06T11:31:47Z</time>
      </trkpt>
      <trkpt lat="43.82722" lon="6.95396">
        <ele>1449.81</ele>
        <time>2021-01-06T11:31:51Z</time>
      </trkpt>
      <trkpt lat="43.82732" lon="6.95401">
        <ele>1449.81</ele>
        <time>2021-01-06T11:31:56Z</time>
      </trkpt>
      <trkpt lat="43.8274" lon="6.95405">
        <ele>1450.29</ele>
        <time>2021-01-06T11:32:00Z</time>
      </trkpt>
      <trkpt lat="43.82761" lon="6.95419">
        <ele>1449.81</ele>
        <time>2021-01-06T11:32:11Z</time>
      </trkpt>
      <trkpt lat="43.82791" lon="6.95448">
        <ele>1448.36</ele>
        <time>2021-01-06T11:32:22Z</time>
      </trkpt>
      <trkpt lat="43.82801" lon="6.95467">
        <ele>1449.81</ele>
        <time>2021-01-06T11:32:30Z</time>
      </trkpt>
      <trkpt lat="43.82798" lon="6.95483">
        <ele>1450.77</ele>
        <time>2021-01-06T11:32:39Z</time>
      </trkpt>
      <trkpt lat="43.82787" lon="6.9549">
        <ele>1453.17</ele>
        <time>2021-01-06T11:32:49Z</time>
      </trkpt>
      <trkpt lat="43.82786" lon="6.9549">
        <ele>1453.65</ele>
        <time>2021-01-06T11:32:51Z</time>
      </trkpt>
      <trkpt lat="43.82779" lon="6.9549">
        <ele>1454.13</ele>
        <time>2021-01-06T11:32:59Z</time>
      </trkpt>
      <trkpt lat="43.82778" lon="6.95491">
        <ele>1454.61</ele>
        <time>2021-01-06T11:33:00Z</time>
      </trkpt>
      <trkpt lat="43.82773" lon="6.95492">
        <ele>1455.57</ele>
        <time>2021-01-06T11:33:04Z</time>
      </trkpt>
      <trkpt lat="43.82764" lon="6.95495">
        <ele>1456.53</ele>
        <time>2021-01-06T11:33:12Z</time>
      </trkpt>
      <trkpt lat="43.82762" lon="6.95496">
        <ele>1456.53</ele>
        <time>2021-01-06T11:33:14Z</time>
      </trkpt>
      <trkpt lat="43.82754" lon="6.95504">
        <ele>1457.02</ele>
        <time>2021-01-06T11:33:22Z</time>
      </trkpt>
      <trkpt lat="43.82749" lon="6.95506">
        <ele>1457.98</ele>
        <time>2021-01-06T11:33:27Z</time>
      </trkpt>
      <trkpt lat="43.8274" lon="6.95514">
        <ele>1458.94</ele>
        <time>2021-01-06T11:33:36Z</time>
      </trkpt>
      <trkpt lat="43.8273" lon="6.95528">
        <ele>1459.42</ele>
        <time>2021-01-06T11:33:47Z</time>
      </trkpt>
      <trkpt lat="43.82726" lon="6.9554">
        <ele>1459.9</ele>
        <time>2021-01-06T11:33:54Z</time>
      </trkpt>
      <trkpt lat="43.82726" lon="6.95544">
        <ele>1459.9</ele>
        <time>2021-01-06T11:33:56Z</time>
      </trkpt>
      <trkpt lat="43.82735" lon="6.95563">
        <ele>1460.86</ele>
        <time>2021-01-06T11:34:07Z</time>
      </trkpt>
      <trkpt lat="43.82745" lon="6.95572">
        <ele>1461.34</ele>
        <time>2021-01-06T11:34:15Z</time>
      </trkpt>
      <trkpt lat="43.82754" lon="6.95584">
        <ele>1462.3</ele>
        <time>2021-01-06T11:34:24Z</time>
      </trkpt>
      <trkpt lat="43.82751" lon="6.95612">
        <ele>1462.3</ele>
        <time>2021-01-06T11:34:35Z</time>
      </trkpt>
      <trkpt lat="43.82749" lon="6.95615">
        <ele>1462.3</ele>
        <time>2021-01-06T11:34:36Z</time>
      </trkpt>
      <trkpt lat="43.82743" lon="6.95628">
        <ele>1460.38</ele>
        <time>2021-01-06T11:34:39Z</time>
      </trkpt>
      <trkpt lat="43.82741" lon="6.95632">
        <ele>1460.38</ele>
        <time>2021-01-06T11:34:40Z</time>
      </trkpt>
      <trkpt lat="43.82728" lon="6.95646">
        <ele>1461.34</ele>
        <time>2021-01-06T11:34:49Z</time>
      </trkpt>
      <trkpt lat="43.82727" lon="6.95646">
        <ele>1461.34</ele>
        <time>2021-01-06T11:34:50Z</time>
      </trkpt>
      <trkpt lat="43.82712" lon="6.95642">
        <ele>1462.78</ele>
        <time>2021-01-06T11:34:59Z</time>
      </trkpt>
      <trkpt lat="43.82698" lon="6.95629">
        <ele>1463.26</ele>
        <time>2021-01-06T11:35:09Z</time>
      </trkpt>
      <trkpt lat="43.82686" lon="6.95621">
        <ele>1463.26</ele>
        <time>2021-01-06T11:35:17Z</time>
      </trkpt>
      <trkpt lat="43.82683" lon="6.95619">
        <ele>1463.74</ele>
        <time>2021-01-06T11:35:19Z</time>
      </trkpt>
      <trkpt lat="43.82669" lon="6.95613">
        <ele>1465.19</ele>
        <time>2021-01-06T11:35:30Z</time>
      </trkpt>
      <trkpt lat="43.82667" lon="6.95612">
        <ele>1465.67</ele>
        <time>2021-01-06T11:35:32Z</time>
      </trkpt>
      <trkpt lat="43.8266" lon="6.95607">
        <ele>1467.11</ele>
        <time>2021-01-06T11:35:38Z</time>
      </trkpt>
      <trkpt lat="43.82652" lon="6.95607">
        <ele>1467.59</ele>
        <time>2021-01-06T11:35:45Z</time>
      </trkpt>
      <trkpt lat="43.82647" lon="6.95606">
        <ele>1468.07</ele>
        <time>2021-01-06T11:35:49Z</time>
      </trkpt>
      <trkpt lat="43.82637" lon="6.95606">
        <ele>1466.63</ele>
        <time>2021-01-06T11:35:54Z</time>
      </trkpt>
      <trkpt lat="43.82632" lon="6.95606">
        <ele>1466.63</ele>
        <time>2021-01-06T11:35:57Z</time>
      </trkpt>
      <trkpt lat="43.82627" lon="6.95606">
        <ele>1468.07</ele>
        <time>2021-01-06T11:36:00Z</time>
      </trkpt>
      <trkpt lat="43.82623" lon="6.95606">
        <ele>1468.07</ele>
        <time>2021-01-06T11:36:03Z</time>
      </trkpt>
      <trkpt lat="43.82613" lon="6.95606">
        <ele>1469.03</ele>
        <time>2021-01-06T11:36:12Z</time>
      </trkpt>
      <trkpt lat="43.8261" lon="6.95605">
        <ele>1469.51</ele>
        <time>2021-01-06T11:36:16Z</time>
      </trkpt>
      <trkpt lat="43.82603" lon="6.95605">
        <ele>1469.51</ele>
        <time>2021-01-06T11:36:22Z</time>
      </trkpt>
      <trkpt lat="43.82593" lon="6.95604">
        <ele>1470.95</ele>
        <time>2021-01-06T11:36:31Z</time>
      </trkpt>
      <trkpt lat="43.82588" lon="6.95604">
        <ele>1470.95</ele>
        <time>2021-01-06T11:36:35Z</time>
      </trkpt>
      <trkpt lat="43.82577" lon="6.95605">
        <ele>1472.4</ele>
        <time>2021-01-06T11:36:44Z</time>
      </trkpt>
      <trkpt lat="43.8257" lon="6.95605">
        <ele>1472.88</ele>
        <time>2021-01-06T11:36:50Z</time>
      </trkpt>
      <trkpt lat="43.82562" lon="6.95607">
        <ele>1474.32</ele>
        <time>2021-01-06T11:36:58Z</time>
      </trkpt>
      <trkpt lat="43.82554" lon="6.95611">
        <ele>1474.8</ele>
        <time>2021-01-06T11:37:06Z</time>
      </trkpt>
      <trkpt lat="43.8255" lon="6.95614">
        <ele>1475.76</ele>
        <time>2021-01-06T11:37:10Z</time>
      </trkpt>
      <trkpt lat="43.82547" lon="6.95618">
        <ele>1476.24</ele>
        <time>2021-01-06T11:37:14Z</time>
      </trkpt>
      <trkpt lat="43.8254" lon="6.95626">
        <ele>1476.24</ele>
        <time>2021-01-06T11:37:21Z</time>
      </trkpt>
      <trkpt lat="43.8253" lon="6.95642">
        <ele>1476.72</ele>
        <time>2021-01-06T11:37:32Z</time>
      </trkpt>
      <trkpt lat="43.82528" lon="6.95645">
        <ele>1476.72</ele>
        <time>2021-01-06T11:37:35Z</time>
      </trkpt>
      <trkpt lat="43.82523" lon="6.95652">
        <ele>1477.68</ele>
        <time>2021-01-06T11:37:42Z</time>
      </trkpt>
      <trkpt lat="43.82516" lon="6.95657">
        <ele>1478.65</ele>
        <time>2021-01-06T11:37:49Z</time>
      </trkpt>
      <trkpt lat="43.82505" lon="6.95661">
        <ele>1480.09</ele>
        <time>2021-01-06T11:37:57Z</time>
      </trkpt>
      <trkpt lat="43.82499" lon="6.95659">
        <ele>1480.57</ele>
        <time>2021-01-06T11:38:01Z</time>
      </trkpt>
      <trkpt lat="43.82497" lon="6.95658">
        <ele>1480.57</ele>
        <time>2021-01-06T11:38:03Z</time>
      </trkpt>
      <trkpt lat="43.82489" lon="6.95655">
        <ele>1481.53</ele>
        <time>2021-01-06T11:38:10Z</time>
      </trkpt>
      <trkpt lat="43.82485" lon="6.95655">
        <ele>1482.01</ele>
        <time>2021-01-06T11:38:14Z</time>
      </trkpt>
      <trkpt lat="43.82477" lon="6.95655">
        <ele>1482.01</ele>
        <time>2021-01-06T11:38:19Z</time>
      </trkpt>
      <trkpt lat="43.8247" lon="6.95657">
        <ele>1482.01</ele>
        <time>2021-01-06T11:38:24Z</time>
      </trkpt>
      <trkpt lat="43.82465" lon="6.95659">
        <ele>1482.01</ele>
        <time>2021-01-06T11:38:27Z</time>
      </trkpt>
      <trkpt lat="43.82459" lon="6.95662">
        <ele>1482.01</ele>
        <time>2021-01-06T11:38:32Z</time>
      </trkpt>
      <trkpt lat="43.82448" lon="6.95664">
        <ele>1482.97</ele>
        <time>2021-01-06T11:38:40Z</time>
      </trkpt>
      <trkpt lat="43.82443" lon="6.95663">
        <ele>1483.45</ele>
        <time>2021-01-06T11:38:45Z</time>
      </trkpt>
      <trkpt lat="43.8244" lon="6.95664">
        <ele>1483.45</ele>
        <time>2021-01-06T11:38:48Z</time>
      </trkpt>
      <trkpt lat="43.8243" lon="6.95666">
        <ele>1484.89</ele>
        <time>2021-01-06T11:38:55Z</time>
      </trkpt>
      <trkpt lat="43.82425" lon="6.95667">
        <ele>1485.37</ele>
        <time>2021-01-06T11:38:59Z</time>
      </trkpt>
      <trkpt lat="43.82413" lon="6.95668">
        <ele>1485.85</ele>
        <time>2021-01-06T11:39:08Z</time>
      </trkpt>
      <trkpt lat="43.82408" lon="6.95668">
        <ele>1486.34</ele>
        <time>2021-01-06T11:39:12Z</time>
      </trkpt>
      <trkpt lat="43.82392" lon="6.95668">
        <ele>1487.3</ele>
        <time>2021-01-06T11:39:25Z</time>
      </trkpt>
      <trkpt lat="43.82386" lon="6.95667">
        <ele>1488.26</ele>
        <time>2021-01-06T11:39:30Z</time>
      </trkpt>
      <trkpt lat="43.82383" lon="6.95667">
        <ele>1488.26</ele>
        <time>2021-01-06T11:39:32Z</time>
      </trkpt>
      <trkpt lat="43.82374" lon="6.95665">
        <ele>1489.22</ele>
        <time>2021-01-06T11:39:40Z</time>
      </trkpt>
      <trkpt lat="43.82366" lon="6.95662">
        <ele>1490.18</ele>
        <time>2021-01-06T11:39:48Z</time>
      </trkpt>
      <trkpt lat="43.82354" lon="6.95657">
        <ele>1492.1</ele>
        <time>2021-01-06T11:39:59Z</time>
      </trkpt>
      <trkpt lat="43.82348" lon="6.95657">
        <ele>1491.62</ele>
        <time>2021-01-06T11:40:03Z</time>
      </trkpt>
      <trkpt lat="43.82332" lon="6.95656">
        <ele>1491.62</ele>
        <time>2021-01-06T11:40:16Z</time>
      </trkpt>
      <trkpt lat="43.82321" lon="6.95655">
        <ele>1492.1</ele>
        <time>2021-01-06T11:40:29Z</time>
      </trkpt>
      <trkpt lat="43.82316" lon="6.95654">
        <ele>1492.1</ele>
        <time>2021-01-06T11:40:34Z</time>
      </trkpt>
      <trkpt lat="43.82305" lon="6.95649">
        <ele>1494.03</ele>
        <time>2021-01-06T11:40:45Z</time>
      </trkpt>
      <trkpt lat="43.82302" lon="6.95647">
        <ele>1494.03</ele>
        <time>2021-01-06T11:40:48Z</time>
      </trkpt>
      <trkpt lat="43.82297" lon="6.95641">
        <ele>1495.47</ele>
        <time>2021-01-06T11:40:55Z</time>
      </trkpt>
      <trkpt lat="43.82288" lon="6.95628">
        <ele>1496.91</ele>
        <time>2021-01-06T11:41:06Z</time>
      </trkpt>
      <trkpt lat="43.82288" lon="6.95626">
        <ele>1496.91</ele>
        <time>2021-01-06T11:41:07Z</time>
      </trkpt>
      <trkpt lat="43.82285" lon="6.95621">
        <ele>1496.91</ele>
        <time>2021-01-06T11:41:11Z</time>
      </trkpt>
      <trkpt lat="43.82284" lon="6.95615">
        <ele>1497.39</ele>
        <time>2021-01-06T11:41:15Z</time>
      </trkpt>
      <trkpt lat="43.82282" lon="6.9561">
        <ele>1497.87</ele>
        <time>2021-01-06T11:41:19Z</time>
      </trkpt>
      <trkpt lat="43.82281" lon="6.95603">
        <ele>1498.35</ele>
        <time>2021-01-06T11:41:24Z</time>
      </trkpt>
      <trkpt lat="43.8228" lon="6.95588">
        <ele>1500.27</ele>
        <time>2021-01-06T11:41:34Z</time>
      </trkpt>
      <trkpt lat="43.8228" lon="6.95579">
        <ele>1500.27</ele>
        <time>2021-01-06T11:41:40Z</time>
      </trkpt>
      <trkpt lat="43.8228" lon="6.95576">
        <ele>1501.24</ele>
        <time>2021-01-06T11:41:42Z</time>
      </trkpt>
      <trkpt lat="43.8228" lon="6.95566">
        <ele>1502.2</ele>
        <time>2021-01-06T11:41:49Z</time>
      </trkpt>
      <trkpt lat="43.8228" lon="6.95565">
        <ele>1502.2</ele>
        <time>2021-01-06T11:41:50Z</time>
      </trkpt>
      <trkpt lat="43.82278" lon="6.95555">
        <ele>1503.64</ele>
        <time>2021-01-06T11:41:58Z</time>
      </trkpt>
      <trkpt lat="43.82275" lon="6.95534">
        <ele>1504.12</ele>
        <time>2021-01-06T11:42:09Z</time>
      </trkpt>
      <trkpt lat="43.82269" lon="6.95517">
        <ele>1505.08</ele>
        <time>2021-01-06T11:42:20Z</time>
      </trkpt>
      <trkpt lat="43.82265" lon="6.95503">
        <ele>1505.08</ele>
        <time>2021-01-06T11:42:27Z</time>
      </trkpt>
      <trkpt lat="43.82264" lon="6.955">
        <ele>1505.08</ele>
        <time>2021-01-06T11:42:29Z</time>
      </trkpt>
      <trkpt lat="43.82256" lon="6.95481">
        <ele>1505.56</ele>
        <time>2021-01-06T11:42:38Z</time>
      </trkpt>
      <trkpt lat="43.82244" lon="6.95463">
        <ele>1506.04</ele>
        <time>2021-01-06T11:42:49Z</time>
      </trkpt>
      <trkpt lat="43.82239" lon="6.95457">
        <ele>1506.52</ele>
        <time>2021-01-06T11:42:54Z</time>
      </trkpt>
      <trkpt lat="43.82236" lon="6.95452">
        <ele>1506.52</ele>
        <time>2021-01-06T11:42:58Z</time>
      </trkpt>
      <trkpt lat="43.82226" lon="6.9544">
        <ele>1507.97</ele>
        <time>2021-01-06T11:43:09Z</time>
      </trkpt>
      <trkpt lat="43.82219" lon="6.95431">
        <ele>1508.45</ele>
        <time>2021-01-06T11:43:16Z</time>
      </trkpt>
      <trkpt lat="43.82217" lon="6.95428">
        <ele>1509.41</ele>
        <time>2021-01-06T11:43:19Z</time>
      </trkpt>
      <trkpt lat="43.82211" lon="6.95415">
        <ele>1510.37</ele>
        <time>2021-01-06T11:43:27Z</time>
      </trkpt>
      <trkpt lat="43.82207" lon="6.95408">
        <ele>1510.85</ele>
        <time>2021-01-06T11:43:33Z</time>
      </trkpt>
      <trkpt lat="43.82203" lon="6.95397">
        <ele>1512.29</ele>
        <time>2021-01-06T11:43:42Z</time>
      </trkpt>
      <trkpt lat="43.82199" lon="6.95388">
        <ele>1513.73</ele>
        <time>2021-01-06T11:43:52Z</time>
      </trkpt>
      <trkpt lat="43.82195" lon="6.95373">
        <ele>1514.21</ele>
        <time>2021-01-06T11:44:01Z</time>
      </trkpt>
      <trkpt lat="43.82188" lon="6.95359">
        <ele>1515.66</ele>
        <time>2021-01-06T11:44:10Z</time>
      </trkpt>
      <trkpt lat="43.82183" lon="6.95348">
        <ele>1517.1</ele>
        <time>2021-01-06T11:44:17Z</time>
      </trkpt>
      <trkpt lat="43.82176" lon="6.95334">
        <ele>1517.1</ele>
        <time>2021-01-06T11:44:24Z</time>
      </trkpt>
      <trkpt lat="43.82172" lon="6.9532">
        <ele>1517.58</ele>
        <time>2021-01-06T11:44:29Z</time>
      </trkpt>
      <trkpt lat="43.82172" lon="6.95296">
        <ele>1517.1</ele>
        <time>2021-01-06T11:44:36Z</time>
      </trkpt>
      <trkpt lat="43.82173" lon="6.95286">
        <ele>1517.58</ele>
        <time>2021-01-06T11:44:39Z</time>
      </trkpt>
      <trkpt lat="43.82173" lon="6.95283">
        <ele>1517.58</ele>
        <time>2021-01-06T11:44:40Z</time>
      </trkpt>
      <trkpt lat="43.82173" lon="6.95279">
        <ele>1517.58</ele>
        <time>2021-01-06T11:44:41Z</time>
      </trkpt>
      <trkpt lat="43.82173" lon="6.95275">
        <ele>1517.58</ele>
        <time>2021-01-06T11:44:42Z</time>
      </trkpt>
      <trkpt lat="43.82174" lon="6.95267">
        <ele>1516.62</ele>
        <time>2021-01-06T11:44:44Z</time>
      </trkpt>
      <trkpt lat="43.82177" lon="6.95242">
        <ele>1514.69</ele>
        <time>2021-01-06T11:44:49Z</time>
      </trkpt>
      <trkpt lat="43.82193" lon="6.95181">
        <ele>1511.81</ele>
        <time>2021-01-06T11:45:01Z</time>
      </trkpt>
      <trkpt lat="43.82199" lon="6.95147">
        <ele>1509.41</ele>
        <time>2021-01-06T11:45:06Z</time>
      </trkpt>
      <trkpt lat="43.82221" lon="6.9508">
        <ele>1507</ele>
        <time>2021-01-06T11:45:18Z</time>
      </trkpt>
      <trkpt lat="43.82242" lon="6.95022">
        <ele>1503.16</ele>
        <time>2021-01-06T11:45:29Z</time>
      </trkpt>
      <trkpt lat="43.82244" lon="6.95015">
        <ele>1503.16</ele>
        <time>2021-01-06T11:45:30Z</time>
      </trkpt>
      <trkpt lat="43.82256" lon="6.94955">
        <ele>1502.2</ele>
        <time>2021-01-06T11:45:42Z</time>
      </trkpt>
      <trkpt lat="43.8225" lon="6.94892">
        <ele>1499.31</ele>
        <time>2021-01-06T11:45:54Z</time>
      </trkpt>
      <trkpt lat="43.82253" lon="6.94874">
        <ele>1499.31</ele>
        <time>2021-01-06T11:45:58Z</time>
      </trkpt>
      <trkpt lat="43.82255" lon="6.94871">
        <ele>1499.31</ele>
        <time>2021-01-06T11:45:59Z</time>
      </trkpt>
      <trkpt lat="43.82257" lon="6.94867">
        <ele>1499.31</ele>
        <time>2021-01-06T11:46:00Z</time>
      </trkpt>
      <trkpt lat="43.82269" lon="6.94841">
        <ele>1496.91</ele>
        <time>2021-01-06T11:46:05Z</time>
      </trkpt>
      <trkpt lat="43.82271" lon="6.94834">
        <ele>1496.43</ele>
        <time>2021-01-06T11:46:06Z</time>
      </trkpt>
      <trkpt lat="43.82273" lon="6.94826">
        <ele>1495.47</ele>
        <time>2021-01-06T11:46:07Z</time>
      </trkpt>
      <trkpt lat="43.82275" lon="6.94811">
        <ele>1494.51</ele>
        <time>2021-01-06T11:46:09Z</time>
      </trkpt>
      <trkpt lat="43.82275" lon="6.94804">
        <ele>1494.03</ele>
        <time>2021-01-06T11:46:10Z</time>
      </trkpt>
      <trkpt lat="43.82273" lon="6.94797">
        <ele>1493.06</ele>
        <time>2021-01-06T11:46:11Z</time>
      </trkpt>
      <trkpt lat="43.82271" lon="6.94788">
        <ele>1492.1</ele>
        <time>2021-01-06T11:46:12Z</time>
      </trkpt>
      <trkpt lat="43.82268" lon="6.94781">
        <ele>1491.14</ele>
        <time>2021-01-06T11:46:13Z</time>
      </trkpt>
      <trkpt lat="43.82263" lon="6.94773">
        <ele>1490.18</ele>
        <time>2021-01-06T11:46:14Z</time>
      </trkpt>
      <trkpt lat="43.82258" lon="6.94767">
        <ele>1490.18</ele>
        <time>2021-01-06T11:46:15Z</time>
      </trkpt>
      <trkpt lat="43.82222" lon="6.94718">
        <ele>1488.74</ele>
        <time>2021-01-06T11:46:26Z</time>
      </trkpt>
      <trkpt lat="43.82218" lon="6.94703">
        <ele>1490.18</ele>
        <time>2021-01-06T11:46:30Z</time>
      </trkpt>
      <trkpt lat="43.82219" lon="6.947">
        <ele>1491.14</ele>
        <time>2021-01-06T11:46:31Z</time>
      </trkpt>
      <trkpt lat="43.82219" lon="6.94696">
        <ele>1490.18</ele>
        <time>2021-01-06T11:46:32Z</time>
      </trkpt>
      <trkpt lat="43.8222" lon="6.94693">
        <ele>1491.14</ele>
        <time>2021-01-06T11:46:33Z</time>
      </trkpt>
      <trkpt lat="43.8222" lon="6.9469">
        <ele>1491.14</ele>
        <time>2021-01-06T11:46:34Z</time>
      </trkpt>
      <trkpt lat="43.82221" lon="6.94687">
        <ele>1491.14</ele>
        <time>2021-01-06T11:46:35Z</time>
      </trkpt>
      <trkpt lat="43.82222" lon="6.94685">
        <ele>1491.14</ele>
        <time>2021-01-06T11:46:36Z</time>
      </trkpt>
      <trkpt lat="43.82226" lon="6.94678">
        <ele>1489.7</ele>
        <time>2021-01-06T11:46:39Z</time>
      </trkpt>
      <trkpt lat="43.82228" lon="6.94677">
        <ele>1491.14</ele>
        <time>2021-01-06T11:46:40Z</time>
      </trkpt>
      <trkpt lat="43.82248" lon="6.9467">
        <ele>1489.7</ele>
        <time>2021-01-06T11:46:46Z</time>
      </trkpt>
      <trkpt lat="43.82281" lon="6.94629">
        <ele>1487.78</ele>
        <time>2021-01-06T11:46:59Z</time>
      </trkpt>
      <trkpt lat="43.82284" lon="6.94581">
        <ele>1486.34</ele>
        <time>2021-01-06T11:47:11Z</time>
      </trkpt>
      <trkpt lat="43.82283" lon="6.94566">
        <ele>1485.85</ele>
        <time>2021-01-06T11:47:14Z</time>
      </trkpt>
      <trkpt lat="43.82283" lon="6.9456">
        <ele>1485.37</ele>
        <time>2021-01-06T11:47:15Z</time>
      </trkpt>
      <trkpt lat="43.82284" lon="6.94546">
        <ele>1483.93</ele>
        <time>2021-01-06T11:47:17Z</time>
      </trkpt>
      <trkpt lat="43.8229" lon="6.94519">
        <ele>1485.85</ele>
        <time>2021-01-06T11:47:23Z</time>
      </trkpt>
      <trkpt lat="43.82296" lon="6.94502">
        <ele>1484.89</ele>
        <time>2021-01-06T11:47:28Z</time>
      </trkpt>
      <trkpt lat="43.82301" lon="6.94458">
        <ele>1481.05</ele>
        <time>2021-01-06T11:47:35Z</time>
      </trkpt>
      <trkpt lat="43.82301" lon="6.94451">
        <ele>1481.05</ele>
        <time>2021-01-06T11:47:36Z</time>
      </trkpt>
      <trkpt lat="43.823" lon="6.94389">
        <ele>1479.61</ele>
        <time>2021-01-06T11:47:47Z</time>
      </trkpt>
      <trkpt lat="43.823" lon="6.9437">
        <ele>1478.16</ele>
        <time>2021-01-06T11:47:50Z</time>
      </trkpt>
      <trkpt lat="43.823" lon="6.94357">
        <ele>1477.68</ele>
        <time>2021-01-06T11:47:52Z</time>
      </trkpt>
      <trkpt lat="43.82301" lon="6.94351">
        <ele>1477.68</ele>
        <time>2021-01-06T11:47:53Z</time>
      </trkpt>
      <trkpt lat="43.82302" lon="6.94346">
        <ele>1477.68</ele>
        <time>2021-01-06T11:47:54Z</time>
      </trkpt>
      <trkpt lat="43.82304" lon="6.94342">
        <ele>1479.13</ele>
        <time>2021-01-06T11:47:55Z</time>
      </trkpt>
      <trkpt lat="43.82305" lon="6.94339">
        <ele>1479.13</ele>
        <time>2021-01-06T11:47:56Z</time>
      </trkpt>
      <trkpt lat="43.82306" lon="6.94335">
        <ele>1479.61</ele>
        <time>2021-01-06T11:47:57Z</time>
      </trkpt>
      <trkpt lat="43.82307" lon="6.94331">
        <ele>1479.61</ele>
        <time>2021-01-06T11:47:58Z</time>
      </trkpt>
      <trkpt lat="43.82308" lon="6.94328">
        <ele>1478.16</ele>
        <time>2021-01-06T11:47:59Z</time>
      </trkpt>
      <trkpt lat="43.82308" lon="6.94323">
        <ele>1478.16</ele>
        <time>2021-01-06T11:48:00Z</time>
      </trkpt>
      <trkpt lat="43.82298" lon="6.94282">
        <ele>1473.84</ele>
        <time>2021-01-06T11:48:08Z</time>
      </trkpt>
      <trkpt lat="43.82296" lon="6.94275">
        <ele>1474.32</ele>
        <time>2021-01-06T11:48:09Z</time>
      </trkpt>
      <trkpt lat="43.82289" lon="6.94244">
        <ele>1472.88</ele>
        <time>2021-01-06T11:48:14Z</time>
      </trkpt>
      <trkpt lat="43.82275" lon="6.94207">
        <ele>1470.95</ele>
        <time>2021-01-06T11:48:21Z</time>
      </trkpt>
      <trkpt lat="43.82272" lon="6.94195">
        <ele>1470.47</ele>
        <time>2021-01-06T11:48:23Z</time>
      </trkpt>
      <trkpt lat="43.82267" lon="6.9417">
        <ele>1470.47</ele>
        <time>2021-01-06T11:48:27Z</time>
      </trkpt>
      <trkpt lat="43.82265" lon="6.94158">
        <ele>1469.03</ele>
        <time>2021-01-06T11:48:29Z</time>
      </trkpt>
      <trkpt lat="43.82264" lon="6.94146">
        <ele>1469.03</ele>
        <time>2021-01-06T11:48:31Z</time>
      </trkpt>
      <trkpt lat="43.82265" lon="6.9414">
        <ele>1468.55</ele>
        <time>2021-01-06T11:48:32Z</time>
      </trkpt>
      <trkpt lat="43.82265" lon="6.94135">
        <ele>1468.55</ele>
        <time>2021-01-06T11:48:33Z</time>
      </trkpt>
      <trkpt lat="43.82269" lon="6.94122">
        <ele>1469.99</ele>
        <time>2021-01-06T11:48:36Z</time>
      </trkpt>
      <trkpt lat="43.82275" lon="6.94094">
        <ele>1467.59</ele>
        <time>2021-01-06T11:48:42Z</time>
      </trkpt>
      <trkpt lat="43.82275" lon="6.94088">
        <ele>1467.59</ele>
        <time>2021-01-06T11:48:43Z</time>
      </trkpt>
      <trkpt lat="43.82274" lon="6.94081">
        <ele>1466.15</ele>
        <time>2021-01-06T11:48:44Z</time>
      </trkpt>
      <trkpt lat="43.82273" lon="6.94074">
        <ele>1466.15</ele>
        <time>2021-01-06T11:48:45Z</time>
      </trkpt>
      <trkpt lat="43.82272" lon="6.94068">
        <ele>1465.67</ele>
        <time>2021-01-06T11:48:46Z</time>
      </trkpt>
      <trkpt lat="43.82271" lon="6.94061">
        <ele>1465.67</ele>
        <time>2021-01-06T11:48:47Z</time>
      </trkpt>
      <trkpt lat="43.82271" lon="6.94054">
        <ele>1464.71</ele>
        <time>2021-01-06T11:48:48Z</time>
      </trkpt>
      <trkpt lat="43.82272" lon="6.94049">
        <ele>1464.71</ele>
        <time>2021-01-06T11:48:49Z</time>
      </trkpt>
      <trkpt lat="43.82275" lon="6.94046">
        <ele>1464.71</ele>
        <time>2021-01-06T11:48:50Z</time>
      </trkpt>
      <trkpt lat="43.82278" lon="6.94047">
        <ele>1466.15</ele>
        <time>2021-01-06T11:48:51Z</time>
      </trkpt>
      <trkpt lat="43.82281" lon="6.9405">
        <ele>1464.71</ele>
        <time>2021-01-06T11:48:52Z</time>
      </trkpt>
      <trkpt lat="43.82283" lon="6.94054">
        <ele>1464.71</ele>
        <time>2021-01-06T11:48:53Z</time>
      </trkpt>
      <trkpt lat="43.82285" lon="6.94058">
        <ele>1462.78</ele>
        <time>2021-01-06T11:48:54Z</time>
      </trkpt>
      <trkpt lat="43.82286" lon="6.94064">
        <ele>1465.19</ele>
        <time>2021-01-06T11:48:55Z</time>
      </trkpt>
      <trkpt lat="43.82287" lon="6.94069">
        <ele>1462.78</ele>
        <time>2021-01-06T11:48:56Z</time>
      </trkpt>
      <trkpt lat="43.82289" lon="6.94088">
        <ele>1462.78</ele>
        <time>2021-01-06T11:49:00Z</time>
      </trkpt>
      <trkpt lat="43.82292" lon="6.9412">
        <ele>1462.3</ele>
        <time>2021-01-06T11:49:07Z</time>
      </trkpt>
      <trkpt lat="43.82293" lon="6.94126">
        <ele>1462.3</ele>
        <time>2021-01-06T11:49:08Z</time>
      </trkpt>
      <trkpt lat="43.82296" lon="6.94139">
        <ele>1460.86</ele>
        <time>2021-01-06T11:49:10Z</time>
      </trkpt>
      <trkpt lat="43.82318" lon="6.94191">
        <ele>1461.34</ele>
        <time>2021-01-06T11:49:20Z</time>
      </trkpt>
      <trkpt lat="43.82336" lon="6.94218">
        <ele>1459.42</ele>
        <time>2021-01-06T11:49:28Z</time>
      </trkpt>
      <trkpt lat="43.8234" lon="6.94219">
        <ele>1458.94</ele>
        <time>2021-01-06T11:49:29Z</time>
      </trkpt>
      <trkpt lat="43.82349" lon="6.94221">
        <ele>1459.9</ele>
        <time>2021-01-06T11:49:31Z</time>
      </trkpt>
      <trkpt lat="43.82353" lon="6.94221">
        <ele>1459.9</ele>
        <time>2021-01-06T11:49:32Z</time>
      </trkpt>
      <trkpt lat="43.82357" lon="6.94222">
        <ele>1459.9</ele>
        <time>2021-01-06T11:49:33Z</time>
      </trkpt>
      <trkpt lat="43.82362" lon="6.94222">
        <ele>1459.9</ele>
        <time>2021-01-06T11:49:34Z</time>
      </trkpt>
      <trkpt lat="43.82366" lon="6.94222">
        <ele>1459.9</ele>
        <time>2021-01-06T11:49:35Z</time>
      </trkpt>
      <trkpt lat="43.8237" lon="6.94223">
        <ele>1459.9</ele>
        <time>2021-01-06T11:49:36Z</time>
      </trkpt>
      <trkpt lat="43.82373" lon="6.94224">
        <ele>1458.46</ele>
        <time>2021-01-06T11:49:37Z</time>
      </trkpt>
      <trkpt lat="43.82377" lon="6.94225">
        <ele>1458.46</ele>
        <time>2021-01-06T11:49:38Z</time>
      </trkpt>
      <trkpt lat="43.82381" lon="6.94226">
        <ele>1458.46</ele>
        <time>2021-01-06T11:49:39Z</time>
      </trkpt>
      <trkpt lat="43.82384" lon="6.94226">
        <ele>1457.5</ele>
        <time>2021-01-06T11:49:40Z</time>
      </trkpt>
      <trkpt lat="43.82388" lon="6.94226">
        <ele>1459.9</ele>
        <time>2021-01-06T11:49:41Z</time>
      </trkpt>
      <trkpt lat="43.8241" lon="6.94228">
        <ele>1455.09</ele>
        <time>2021-01-06T11:49:46Z</time>
      </trkpt>
      <trkpt lat="43.82415" lon="6.94228">
        <ele>1455.09</ele>
        <time>2021-01-06T11:49:47Z</time>
      </trkpt>
      <trkpt lat="43.82442" lon="6.94228">
        <ele>1453.17</ele>
        <time>2021-01-06T11:49:52Z</time>
      </trkpt>
      <trkpt lat="43.82469" lon="6.94224">
        <ele>1452.21</ele>
        <time>2021-01-06T11:49:57Z</time>
      </trkpt>
      <trkpt lat="43.82497" lon="6.94216">
        <ele>1449.81</ele>
        <time>2021-01-06T11:50:02Z</time>
      </trkpt>
      <trkpt lat="43.82516" lon="6.9421">
        <ele>1445.96</ele>
        <time>2021-01-06T11:50:05Z</time>
      </trkpt>
      <trkpt lat="43.82573" lon="6.94194">
        <ele>1443.08</ele>
        <time>2021-01-06T11:50:14Z</time>
      </trkpt>
      <trkpt lat="43.82591" lon="6.94191">
        <ele>1441.63</ele>
        <time>2021-01-06T11:50:17Z</time>
      </trkpt>
      <trkpt lat="43.82618" lon="6.94189">
        <ele>1438.75</ele>
        <time>2021-01-06T11:50:21Z</time>
      </trkpt>
      <trkpt lat="43.82644" lon="6.94191">
        <ele>1436.35</ele>
        <time>2021-01-06T11:50:25Z</time>
      </trkpt>
      <trkpt lat="43.82666" lon="6.94196">
        <ele>1437.31</ele>
        <time>2021-01-06T11:50:29Z</time>
      </trkpt>
      <trkpt lat="43.82705" lon="6.94204">
        <ele>1436.83</ele>
        <time>2021-01-06T11:50:40Z</time>
      </trkpt>
      <trkpt lat="43.82721" lon="6.94208">
        <ele>1438.27</ele>
        <time>2021-01-06T11:50:44Z</time>
      </trkpt>
      <trkpt lat="43.82725" lon="6.94209">
        <ele>1436.83</ele>
        <time>2021-01-06T11:50:45Z</time>
      </trkpt>
      <trkpt lat="43.82729" lon="6.9421">
        <ele>1435.87</ele>
        <time>2021-01-06T11:50:46Z</time>
      </trkpt>
      <trkpt lat="43.82733" lon="6.94212">
        <ele>1437.79</ele>
        <time>2021-01-06T11:50:47Z</time>
      </trkpt>
      <trkpt lat="43.82737" lon="6.94213">
        <ele>1437.79</ele>
        <time>2021-01-06T11:50:48Z</time>
      </trkpt>
      <trkpt lat="43.82742" lon="6.94214">
        <ele>1437.79</ele>
        <time>2021-01-06T11:50:49Z</time>
      </trkpt>
      <trkpt lat="43.82751" lon="6.94217">
        <ele>1436.35</ele>
        <time>2021-01-06T11:50:51Z</time>
      </trkpt>
      <trkpt lat="43.82771" lon="6.94223">
        <ele>1432.98</ele>
        <time>2021-01-06T11:50:55Z</time>
      </trkpt>
      <trkpt lat="43.82776" lon="6.94226">
        <ele>1432.98</ele>
        <time>2021-01-06T11:50:56Z</time>
      </trkpt>
      <trkpt lat="43.82825" lon="6.94253">
        <ele>1431.54</ele>
        <time>2021-01-06T11:51:08Z</time>
      </trkpt>
      <trkpt lat="43.82832" lon="6.94261">
        <ele>1429.62</ele>
        <time>2021-01-06T11:51:10Z</time>
      </trkpt>
      <trkpt lat="43.82836" lon="6.94266">
        <ele>1429.62</ele>
        <time>2021-01-06T11:51:11Z</time>
      </trkpt>
      <trkpt lat="43.82839" lon="6.94274">
        <ele>1428.18</ele>
        <time>2021-01-06T11:51:12Z</time>
      </trkpt>
      <trkpt lat="43.82842" lon="6.94281">
        <ele>1428.18</ele>
        <time>2021-01-06T11:51:13Z</time>
      </trkpt>
      <trkpt lat="43.82844" lon="6.94288">
        <ele>1428.18</ele>
        <time>2021-01-06T11:51:14Z</time>
      </trkpt>
      <trkpt lat="43.82846" lon="6.94302">
        <ele>1429.14</ele>
        <time>2021-01-06T11:51:16Z</time>
      </trkpt>
      <trkpt lat="43.82847" lon="6.94308">
        <ele>1429.14</ele>
        <time>2021-01-06T11:51:17Z</time>
      </trkpt>
      <trkpt lat="43.82851" lon="6.94359">
        <ele>1430.1</ele>
        <time>2021-01-06T11:51:28Z</time>
      </trkpt>
      <trkpt lat="43.82851" lon="6.9437">
        <ele>1430.58</ele>
        <time>2021-01-06T11:51:31Z</time>
      </trkpt>
      <trkpt lat="43.8285" lon="6.94373">
        <ele>1431.06</ele>
        <time>2021-01-06T11:51:32Z</time>
      </trkpt>
      <trkpt lat="43.8285" lon="6.94376">
        <ele>1431.06</ele>
        <time>2021-01-06T11:51:33Z</time>
      </trkpt>
      <trkpt lat="43.82849" lon="6.94379">
        <ele>1431.06</ele>
        <time>2021-01-06T11:51:34Z</time>
      </trkpt>
      <trkpt lat="43.82849" lon="6.94382">
        <ele>1431.06</ele>
        <time>2021-01-06T11:51:35Z</time>
      </trkpt>
      <trkpt lat="43.82848" lon="6.94385">
        <ele>1431.06</ele>
        <time>2021-01-06T11:51:36Z</time>
      </trkpt>
      <trkpt lat="43.82848" lon="6.94389">
        <ele>1431.06</ele>
        <time>2021-01-06T11:51:37Z</time>
      </trkpt>
      <trkpt lat="43.82847" lon="6.94392">
        <ele>1431.06</ele>
        <time>2021-01-06T11:51:38Z</time>
      </trkpt>
      <trkpt lat="43.82845" lon="6.944">
        <ele>1429.62</ele>
        <time>2021-01-06T11:51:40Z</time>
      </trkpt>
      <trkpt lat="43.82854" lon="6.94439">
        <ele>1431.06</ele>
        <time>2021-01-06T11:51:50Z</time>
      </trkpt>
      <trkpt lat="43.82858" lon="6.94482">
        <ele>1430.58</ele>
        <time>2021-01-06T11:52:03Z</time>
      </trkpt>
      <trkpt lat="43.82849" lon="6.9451">
        <ele>1429.62</ele>
        <time>2021-01-06T11:52:09Z</time>
      </trkpt>
      <trkpt lat="43.82853" lon="6.94536">
        <ele>1431.54</ele>
        <time>2021-01-06T11:52:16Z</time>
      </trkpt>
      <trkpt lat="43.82853" lon="6.94539">
        <ele>1431.54</ele>
        <time>2021-01-06T11:52:17Z</time>
      </trkpt>
      <trkpt lat="43.82855" lon="6.94555">
        <ele>1431.54</ele>
        <time>2021-01-06T11:52:22Z</time>
      </trkpt>
      <trkpt lat="43.82855" lon="6.94558">
        <ele>1432.02</ele>
        <time>2021-01-06T11:52:23Z</time>
      </trkpt>
      <trkpt lat="43.82855" lon="6.94561">
        <ele>1432.02</ele>
        <time>2021-01-06T11:52:24Z</time>
      </trkpt>
      <trkpt lat="43.82856" lon="6.94564">
        <ele>1432.02</ele>
        <time>2021-01-06T11:52:25Z</time>
      </trkpt>
      <trkpt lat="43.82856" lon="6.94567">
        <ele>1432.5</ele>
        <time>2021-01-06T11:52:26Z</time>
      </trkpt>
      <trkpt lat="43.82856" lon="6.9457">
        <ele>1432.5</ele>
        <time>2021-01-06T11:52:27Z</time>
      </trkpt>
      <trkpt lat="43.82852" lon="6.94599">
        <ele>1431.54</ele>
        <time>2021-01-06T11:52:35Z</time>
      </trkpt>
      <trkpt lat="43.82839" lon="6.94626">
        <ele>1429.14</ele>
        <time>2021-01-06T11:52:42Z</time>
      </trkpt>
      <trkpt lat="43.82835" lon="6.94634">
        <ele>1430.58</ele>
        <time>2021-01-06T11:52:44Z</time>
      </trkpt>
      <trkpt lat="43.8283" lon="6.94642">
        <ele>1430.58</ele>
        <time>2021-01-06T11:52:47Z</time>
      </trkpt>
      <trkpt lat="43.82828" lon="6.94644">
        <ele>1430.58</ele>
        <time>2021-01-06T11:52:48Z</time>
      </trkpt>
      <trkpt lat="43.82826" lon="6.94646">
        <ele>1431.06</ele>
        <time>2021-01-06T11:52:49Z</time>
      </trkpt>
      <trkpt lat="43.82825" lon="6.94649">
        <ele>1431.06</ele>
        <time>2021-01-06T11:52:50Z</time>
      </trkpt>
      <trkpt lat="43.82823" lon="6.94651">
        <ele>1431.06</ele>
        <time>2021-01-06T11:52:51Z</time>
      </trkpt>
      <trkpt lat="43.82821" lon="6.94653">
        <ele>1431.06</ele>
        <time>2021-01-06T11:52:52Z</time>
      </trkpt>
      <trkpt lat="43.82819" lon="6.94655">
        <ele>1431.06</ele>
        <time>2021-01-06T11:52:53Z</time>
      </trkpt>
      <trkpt lat="43.82817" lon="6.94658">
        <ele>1432.02</ele>
        <time>2021-01-06T11:52:54Z</time>
      </trkpt>
      <trkpt lat="43.82816" lon="6.9466">
        <ele>1432.02</ele>
        <time>2021-01-06T11:52:55Z</time>
      </trkpt>
      <trkpt lat="43.82815" lon="6.94662">
        <ele>1432.02</ele>
        <time>2021-01-06T11:52:56Z</time>
      </trkpt>
      <trkpt lat="43.82814" lon="6.94663">
        <ele>1432.02</ele>
        <time>2021-01-06T11:52:57Z</time>
      </trkpt>
      <trkpt lat="43.82812" lon="6.94665">
        <ele>1432.02</ele>
        <time>2021-01-06T11:52:58Z</time>
      </trkpt>
      <trkpt lat="43.82811" lon="6.94667">
        <ele>1432.02</ele>
        <time>2021-01-06T11:52:59Z</time>
      </trkpt>
      <trkpt lat="43.82809" lon="6.94669">
        <ele>1432.02</ele>
        <time>2021-01-06T11:53:00Z</time>
      </trkpt>
      <trkpt lat="43.82807" lon="6.94672">
        <ele>1432.02</ele>
        <time>2021-01-06T11:53:01Z</time>
      </trkpt>
      <trkpt lat="43.82804" lon="6.94675">
        <ele>1432.02</ele>
        <time>2021-01-06T11:53:02Z</time>
      </trkpt>
      <trkpt lat="43.82801" lon="6.94678">
        <ele>1430.1</ele>
        <time>2021-01-06T11:53:03Z</time>
      </trkpt>
      <trkpt lat="43.82795" lon="6.94685">
        <ele>1429.14</ele>
        <time>2021-01-06T11:53:05Z</time>
      </trkpt>
      <trkpt lat="43.82778" lon="6.94702">
        <ele>1430.1</ele>
        <time>2021-01-06T11:53:12Z</time>
      </trkpt>
      <trkpt lat="43.82772" lon="6.94708">
        <ele>1430.1</ele>
        <time>2021-01-06T11:53:15Z</time>
      </trkpt>
      <trkpt lat="43.8277" lon="6.9471">
        <ele>1430.1</ele>
        <time>2021-01-06T11:53:16Z</time>
      </trkpt>
      <trkpt lat="43.82768" lon="6.94712">
        <ele>1430.1</ele>
        <time>2021-01-06T11:53:17Z</time>
      </trkpt>
      <trkpt lat="43.82765" lon="6.94714">
        <ele>1430.1</ele>
        <time>2021-01-06T11:53:18Z</time>
      </trkpt>
      <trkpt lat="43.82763" lon="6.94716">
        <ele>1430.1</ele>
        <time>2021-01-06T11:53:19Z</time>
      </trkpt>
      <trkpt lat="43.82761" lon="6.94718">
        <ele>1430.1</ele>
        <time>2021-01-06T11:53:20Z</time>
      </trkpt>
      <trkpt lat="43.82758" lon="6.9472">
        <ele>1430.1</ele>
        <time>2021-01-06T11:53:21Z</time>
      </trkpt>
      <trkpt lat="43.82756" lon="6.94721">
        <ele>1430.58</ele>
        <time>2021-01-06T11:53:22Z</time>
      </trkpt>
      <trkpt lat="43.82754" lon="6.94722">
        <ele>1430.58</ele>
        <time>2021-01-06T11:53:23Z</time>
      </trkpt>
      <trkpt lat="43.82752" lon="6.94723">
        <ele>1430.58</ele>
        <time>2021-01-06T11:53:24Z</time>
      </trkpt>
      <trkpt lat="43.8275" lon="6.94724">
        <ele>1430.58</ele>
        <time>2021-01-06T11:53:25Z</time>
      </trkpt>
      <trkpt lat="43.82748" lon="6.94725">
        <ele>1430.58</ele>
        <time>2021-01-06T11:53:26Z</time>
      </trkpt>
      <trkpt lat="43.82746" lon="6.94726">
        <ele>1430.58</ele>
        <time>2021-01-06T11:53:27Z</time>
      </trkpt>
      <trkpt lat="43.82744" lon="6.94727">
        <ele>1431.06</ele>
        <time>2021-01-06T11:53:28Z</time>
      </trkpt>
      <trkpt lat="43.82742" lon="6.94729">
        <ele>1431.06</ele>
        <time>2021-01-06T11:53:29Z</time>
      </trkpt>
      <trkpt lat="43.82741" lon="6.9473">
        <ele>1431.54</ele>
        <time>2021-01-06T11:53:30Z</time>
      </trkpt>
      <trkpt lat="43.82739" lon="6.94731">
        <ele>1431.06</ele>
        <time>2021-01-06T11:53:31Z</time>
      </trkpt>
      <trkpt lat="43.82735" lon="6.94732">
        <ele>1431.06</ele>
        <time>2021-01-06T11:53:33Z</time>
      </trkpt>
      <trkpt lat="43.82733" lon="6.94733">
        <ele>1431.54</ele>
        <time>2021-01-06T11:53:34Z</time>
      </trkpt>
      <trkpt lat="43.82732" lon="6.94734">
        <ele>1431.54</ele>
        <time>2021-01-06T11:53:35Z</time>
      </trkpt>
      <trkpt lat="43.8273" lon="6.94734">
        <ele>1432.02</ele>
        <time>2021-01-06T11:53:36Z</time>
      </trkpt>
      <trkpt lat="43.82728" lon="6.94735">
        <ele>1432.02</ele>
        <time>2021-01-06T11:53:37Z</time>
      </trkpt>
      <trkpt lat="43.82727" lon="6.94736">
        <ele>1432.02</ele>
        <time>2021-01-06T11:53:38Z</time>
      </trkpt>
      <trkpt lat="43.82725" lon="6.94737">
        <ele>1432.02</ele>
        <time>2021-01-06T11:53:39Z</time>
      </trkpt>
      <trkpt lat="43.82723" lon="6.94737">
        <ele>1432.02</ele>
        <time>2021-01-06T11:53:40Z</time>
      </trkpt>
      <trkpt lat="43.82722" lon="6.94738">
        <ele>1432.5</ele>
        <time>2021-01-06T11:53:41Z</time>
      </trkpt>
      <trkpt lat="43.8272" lon="6.94739">
        <ele>1432.5</ele>
        <time>2021-01-06T11:53:42Z</time>
      </trkpt>
      <trkpt lat="43.82719" lon="6.9474">
        <ele>1432.5</ele>
        <time>2021-01-06T11:53:43Z</time>
      </trkpt>
      <trkpt lat="43.82717" lon="6.9474">
        <ele>1432.5</ele>
        <time>2021-01-06T11:53:44Z</time>
      </trkpt>
      <trkpt lat="43.82715" lon="6.94742">
        <ele>1432.5</ele>
        <time>2021-01-06T11:53:45Z</time>
      </trkpt>
      <trkpt lat="43.82713" lon="6.94743">
        <ele>1432.5</ele>
        <time>2021-01-06T11:53:46Z</time>
      </trkpt>
      <trkpt lat="43.82712" lon="6.94744">
        <ele>1432.5</ele>
        <time>2021-01-06T11:53:47Z</time>
      </trkpt>
      <trkpt lat="43.8271" lon="6.94745">
        <ele>1432.5</ele>
        <time>2021-01-06T11:53:48Z</time>
      </trkpt>
      <trkpt lat="43.82708" lon="6.94745">
        <ele>1432.5</ele>
        <time>2021-01-06T11:53:49Z</time>
      </trkpt>
      <trkpt lat="43.82706" lon="6.94746">
        <ele>1433.94</ele>
        <time>2021-01-06T11:53:50Z</time>
      </trkpt>
      <trkpt lat="43.82705" lon="6.94746">
        <ele>1433.94</ele>
        <time>2021-01-06T11:53:51Z</time>
      </trkpt>
      <trkpt lat="43.82703" lon="6.94747">
        <ele>1433.94</ele>
        <time>2021-01-06T11:53:52Z</time>
      </trkpt>
      <trkpt lat="43.82702" lon="6.94747">
        <ele>1433.94</ele>
        <time>2021-01-06T11:53:53Z</time>
      </trkpt>
      <trkpt lat="43.82701" lon="6.94748">
        <ele>1434.42</ele>
        <time>2021-01-06T11:53:54Z</time>
      </trkpt>
      <trkpt lat="43.82699" lon="6.94749">
        <ele>1434.42</ele>
        <time>2021-01-06T11:53:55Z</time>
      </trkpt>
      <trkpt lat="43.82698" lon="6.9475">
        <ele>1434.42</ele>
        <time>2021-01-06T11:53:56Z</time>
      </trkpt>
      <trkpt lat="43.82697" lon="6.94751">
        <ele>1434.42</ele>
        <time>2021-01-06T11:53:57Z</time>
      </trkpt>
      <trkpt lat="43.82695" lon="6.94752">
        <ele>1434.42</ele>
        <time>2021-01-06T11:53:58Z</time>
      </trkpt>
      <trkpt lat="43.82694" lon="6.94753">
        <ele>1434.42</ele>
        <time>2021-01-06T11:53:59Z</time>
      </trkpt>
      <trkpt lat="43.82692" lon="6.94754">
        <ele>1434.42</ele>
        <time>2021-01-06T11:54:00Z</time>
      </trkpt>
      <trkpt lat="43.8269" lon="6.94755">
        <ele>1434.42</ele>
        <time>2021-01-06T11:54:01Z</time>
      </trkpt>
      <trkpt lat="43.82689" lon="6.94757">
        <ele>1433.94</ele>
        <time>2021-01-06T11:54:02Z</time>
      </trkpt>
      <trkpt lat="43.82687" lon="6.94758">
        <ele>1434.91</ele>
        <time>2021-01-06T11:54:03Z</time>
      </trkpt>
      <trkpt lat="43.82685" lon="6.94759">
        <ele>1434.91</ele>
        <time>2021-01-06T11:54:04Z</time>
      </trkpt>
      <trkpt lat="43.82683" lon="6.9476">
        <ele>1434.91</ele>
        <time>2021-01-06T11:54:05Z</time>
      </trkpt>
      <trkpt lat="43.82682" lon="6.94761">
        <ele>1434.91</ele>
        <time>2021-01-06T11:54:06Z</time>
      </trkpt>
      <trkpt lat="43.8268" lon="6.94762">
        <ele>1434.91</ele>
        <time>2021-01-06T11:54:07Z</time>
      </trkpt>
      <trkpt lat="43.82679" lon="6.94763">
        <ele>1434.91</ele>
        <time>2021-01-06T11:54:08Z</time>
      </trkpt>
      <trkpt lat="43.82677" lon="6.94764">
        <ele>1434.91</ele>
        <time>2021-01-06T11:54:09Z</time>
      </trkpt>
      <trkpt lat="43.82676" lon="6.94764">
        <ele>1435.39</ele>
        <time>2021-01-06T11:54:10Z</time>
      </trkpt>
      <trkpt lat="43.82674" lon="6.94766">
        <ele>1435.39</ele>
        <time>2021-01-06T11:54:11Z</time>
      </trkpt>
      <trkpt lat="43.82672" lon="6.94767">
        <ele>1435.39</ele>
        <time>2021-01-06T11:54:12Z</time>
      </trkpt>
      <trkpt lat="43.82671" lon="6.94768">
        <ele>1435.39</ele>
        <time>2021-01-06T11:54:13Z</time>
      </trkpt>
      <trkpt lat="43.82669" lon="6.9477">
        <ele>1435.39</ele>
        <time>2021-01-06T11:54:14Z</time>
      </trkpt>
      <trkpt lat="43.82668" lon="6.94771">
        <ele>1435.87</ele>
        <time>2021-01-06T11:54:15Z</time>
      </trkpt>
      <trkpt lat="43.82666" lon="6.94772">
        <ele>1435.87</ele>
        <time>2021-01-06T11:54:16Z</time>
      </trkpt>
      <trkpt lat="43.82665" lon="6.94773">
        <ele>1435.87</ele>
        <time>2021-01-06T11:54:17Z</time>
      </trkpt>
      <trkpt lat="43.82663" lon="6.94775">
        <ele>1434.42</ele>
        <time>2021-01-06T11:54:18Z</time>
      </trkpt>
      <trkpt lat="43.82661" lon="6.94776">
        <ele>1435.87</ele>
        <time>2021-01-06T11:54:19Z</time>
      </trkpt>
      <trkpt lat="43.8266" lon="6.94777">
        <ele>1435.87</ele>
        <time>2021-01-06T11:54:20Z</time>
      </trkpt>
      <trkpt lat="43.82658" lon="6.94779">
        <ele>1435.87</ele>
        <time>2021-01-06T11:54:21Z</time>
      </trkpt>
      <trkpt lat="43.82656" lon="6.9478">
        <ele>1434.42</ele>
        <time>2021-01-06T11:54:22Z</time>
      </trkpt>
      <trkpt lat="43.82654" lon="6.94781">
        <ele>1434.42</ele>
        <time>2021-01-06T11:54:23Z</time>
      </trkpt>
      <trkpt lat="43.82651" lon="6.94782">
        <ele>1434.42</ele>
        <time>2021-01-06T11:54:24Z</time>
      </trkpt>
      <trkpt lat="43.82618" lon="6.94798">
        <ele>1433.46</ele>
        <time>2021-01-06T11:54:36Z</time>
      </trkpt>
      <trkpt lat="43.82617" lon="6.94799">
        <ele>1434.91</ele>
        <time>2021-01-06T11:54:37Z</time>
      </trkpt>
      <trkpt lat="43.82615" lon="6.948">
        <ele>1434.91</ele>
        <time>2021-01-06T11:54:38Z</time>
      </trkpt>
      <trkpt lat="43.82613" lon="6.948">
        <ele>1434.91</ele>
        <time>2021-01-06T11:54:39Z</time>
      </trkpt>
      <trkpt lat="43.82611" lon="6.94801">
        <ele>1434.91</ele>
        <time>2021-01-06T11:54:40Z</time>
      </trkpt>
      <trkpt lat="43.82609" lon="6.94802">
        <ele>1434.91</ele>
        <time>2021-01-06T11:54:41Z</time>
      </trkpt>
      <trkpt lat="43.82608" lon="6.94802">
        <ele>1434.91</ele>
        <time>2021-01-06T11:54:42Z</time>
      </trkpt>
      <trkpt lat="43.82606" lon="6.94802">
        <ele>1435.39</ele>
        <time>2021-01-06T11:54:43Z</time>
      </trkpt>
      <trkpt lat="43.82604" lon="6.94802">
        <ele>1435.39</ele>
        <time>2021-01-06T11:54:44Z</time>
      </trkpt>
      <trkpt lat="43.82602" lon="6.94803">
        <ele>1435.39</ele>
        <time>2021-01-06T11:54:45Z</time>
      </trkpt>
      <trkpt lat="43.82601" lon="6.94803">
        <ele>1435.39</ele>
        <time>2021-01-06T11:54:46Z</time>
      </trkpt>
      <trkpt lat="43.82599" lon="6.94804">
        <ele>1435.39</ele>
        <time>2021-01-06T11:54:47Z</time>
      </trkpt>
      <trkpt lat="43.82597" lon="6.94804">
        <ele>1435.39</ele>
        <time>2021-01-06T11:54:48Z</time>
      </trkpt>
      <trkpt lat="43.82596" lon="6.94805">
        <ele>1435.87</ele>
        <time>2021-01-06T11:54:49Z</time>
      </trkpt>
      <trkpt lat="43.82594" lon="6.94805">
        <ele>1435.87</ele>
        <time>2021-01-06T11:54:50Z</time>
      </trkpt>
      <trkpt lat="43.82593" lon="6.94805">
        <ele>1435.87</ele>
        <time>2021-01-06T11:54:51Z</time>
      </trkpt>
      <trkpt lat="43.82591" lon="6.94806">
        <ele>1435.87</ele>
        <time>2021-01-06T11:54:52Z</time>
      </trkpt>
      <trkpt lat="43.8259" lon="6.94806">
        <ele>1435.87</ele>
        <time>2021-01-06T11:54:53Z</time>
      </trkpt>
      <trkpt lat="43.82588" lon="6.94806">
        <ele>1435.87</ele>
        <time>2021-01-06T11:54:54Z</time>
      </trkpt>
      <trkpt lat="43.82587" lon="6.94807">
        <ele>1436.83</ele>
        <time>2021-01-06T11:54:55Z</time>
      </trkpt>
      <trkpt lat="43.82585" lon="6.94808">
        <ele>1436.83</ele>
        <time>2021-01-06T11:54:56Z</time>
      </trkpt>
      <trkpt lat="43.82584" lon="6.94809">
        <ele>1437.31</ele>
        <time>2021-01-06T11:54:57Z</time>
      </trkpt>
      <trkpt lat="43.82583" lon="6.94809">
        <ele>1437.31</ele>
        <time>2021-01-06T11:54:58Z</time>
      </trkpt>
      <trkpt lat="43.82582" lon="6.9481">
        <ele>1437.31</ele>
        <time>2021-01-06T11:54:59Z</time>
      </trkpt>
      <trkpt lat="43.82579" lon="6.94811">
        <ele>1437.31</ele>
        <time>2021-01-06T11:55:02Z</time>
      </trkpt>
      <trkpt lat="43.82577" lon="6.94811">
        <ele>1438.27</ele>
        <time>2021-01-06T11:55:03Z</time>
      </trkpt>
      <trkpt lat="43.82576" lon="6.94812">
        <ele>1438.27</ele>
        <time>2021-01-06T11:55:04Z</time>
      </trkpt>
      <trkpt lat="43.82575" lon="6.94813">
        <ele>1438.27</ele>
        <time>2021-01-06T11:55:05Z</time>
      </trkpt>
      <trkpt lat="43.82573" lon="6.94814">
        <ele>1438.27</ele>
        <time>2021-01-06T11:55:06Z</time>
      </trkpt>
      <trkpt lat="43.82572" lon="6.94814">
        <ele>1438.27</ele>
        <time>2021-01-06T11:55:07Z</time>
      </trkpt>
      <trkpt lat="43.82571" lon="6.94815">
        <ele>1438.27</ele>
        <time>2021-01-06T11:55:08Z</time>
      </trkpt>
      <trkpt lat="43.8257" lon="6.94816">
        <ele>1438.27</ele>
        <time>2021-01-06T11:55:09Z</time>
      </trkpt>
      <trkpt lat="43.82568" lon="6.94817">
        <ele>1438.27</ele>
        <time>2021-01-06T11:55:10Z</time>
      </trkpt>
      <trkpt lat="43.82566" lon="6.94818">
        <ele>1438.27</ele>
        <time>2021-01-06T11:55:11Z</time>
      </trkpt>
      <trkpt lat="43.82565" lon="6.94819">
        <ele>1438.27</ele>
        <time>2021-01-06T11:55:12Z</time>
      </trkpt>
      <trkpt lat="43.82564" lon="6.9482">
        <ele>1438.75</ele>
        <time>2021-01-06T11:55:13Z</time>
      </trkpt>
      <trkpt lat="43.82558" lon="6.94824">
        <ele>1439.23</ele>
        <time>2021-01-06T11:55:16Z</time>
      </trkpt>
      <trkpt lat="43.82556" lon="6.94824">
        <ele>1439.23</ele>
        <time>2021-01-06T11:55:17Z</time>
      </trkpt>
      <trkpt lat="43.82555" lon="6.94825">
        <ele>1439.23</ele>
        <time>2021-01-06T11:55:18Z</time>
      </trkpt>
      <trkpt lat="43.82553" lon="6.94826">
        <ele>1440.19</ele>
        <time>2021-01-06T11:55:19Z</time>
      </trkpt>
      <trkpt lat="43.82552" lon="6.94827">
        <ele>1440.19</ele>
        <time>2021-01-06T11:55:20Z</time>
      </trkpt>
      <trkpt lat="43.82551" lon="6.94828">
        <ele>1440.19</ele>
        <time>2021-01-06T11:55:21Z</time>
      </trkpt>
      <trkpt lat="43.82549" lon="6.94829">
        <ele>1440.19</ele>
        <time>2021-01-06T11:55:22Z</time>
      </trkpt>
      <trkpt lat="43.82548" lon="6.9483">
        <ele>1440.19</ele>
        <time>2021-01-06T11:55:23Z</time>
      </trkpt>
      <trkpt lat="43.82527" lon="6.94842">
        <ele>1441.15</ele>
        <time>2021-01-06T11:55:36Z</time>
      </trkpt>
      <trkpt lat="43.82525" lon="6.94843">
        <ele>1441.15</ele>
        <time>2021-01-06T11:55:37Z</time>
      </trkpt>
      <trkpt lat="43.82523" lon="6.94845">
        <ele>1441.15</ele>
        <time>2021-01-06T11:55:38Z</time>
      </trkpt>
      <trkpt lat="43.82517" lon="6.94848">
        <ele>1441.15</ele>
        <time>2021-01-06T11:55:42Z</time>
      </trkpt>
      <trkpt lat="43.82516" lon="6.9485">
        <ele>1441.63</ele>
        <time>2021-01-06T11:55:43Z</time>
      </trkpt>
      <trkpt lat="43.82514" lon="6.94851">
        <ele>1441.63</ele>
        <time>2021-01-06T11:55:44Z</time>
      </trkpt>
      <trkpt lat="43.82513" lon="6.94852">
        <ele>1441.63</ele>
        <time>2021-01-06T11:55:45Z</time>
      </trkpt>
      <trkpt lat="43.82511" lon="6.94853">
        <ele>1440.19</ele>
        <time>2021-01-06T11:55:46Z</time>
      </trkpt>
      <trkpt lat="43.82509" lon="6.94854">
        <ele>1440.19</ele>
        <time>2021-01-06T11:55:47Z</time>
      </trkpt>
      <trkpt lat="43.82485" lon="6.94876">
        <ele>1440.67</ele>
        <time>2021-01-06T11:56:00Z</time>
      </trkpt>
      <trkpt lat="43.82479" lon="6.94888">
        <ele>1439.71</ele>
        <time>2021-01-06T11:56:07Z</time>
      </trkpt>
      <trkpt lat="43.82468" lon="6.94931">
        <ele>1437.79</ele>
        <time>2021-01-06T11:56:24Z</time>
      </trkpt>
      <trkpt lat="43.82471" lon="6.94956">
        <ele>1435.87</ele>
        <time>2021-01-06T11:56:30Z</time>
      </trkpt>
      <trkpt lat="43.82473" lon="6.94963">
        <ele>1436.83</ele>
        <time>2021-01-06T11:56:32Z</time>
      </trkpt>
      <trkpt lat="43.82496" lon="6.95002">
        <ele>1435.39</ele>
        <time>2021-01-06T11:56:46Z</time>
      </trkpt>
      <trkpt lat="43.825" lon="6.95003">
        <ele>1434.91</ele>
        <time>2021-01-06T11:56:47Z</time>
      </trkpt>
      <trkpt lat="43.82505" lon="6.95004">
        <ele>1432.5</ele>
        <time>2021-01-06T11:56:48Z</time>
      </trkpt>
      <trkpt lat="43.82511" lon="6.95004">
        <ele>1432.5</ele>
        <time>2021-01-06T11:56:49Z</time>
      </trkpt>
      <trkpt lat="43.82532" lon="6.95002">
        <ele>1429.62</ele>
        <time>2021-01-06T11:56:52Z</time>
      </trkpt>
      <trkpt lat="43.82556" lon="6.95">
        <ele>1425.77</ele>
        <time>2021-01-06T11:56:55Z</time>
      </trkpt>
      <trkpt lat="43.82592" lon="6.94999">
        <ele>1423.37</ele>
        <time>2021-01-06T11:56:59Z</time>
      </trkpt>
      <trkpt lat="43.82628" lon="6.95">
        <ele>1420.49</ele>
        <time>2021-01-06T11:57:03Z</time>
      </trkpt>
      <trkpt lat="43.82655" lon="6.95002">
        <ele>1418.08</ele>
        <time>2021-01-06T11:57:06Z</time>
      </trkpt>
      <trkpt lat="43.8269" lon="6.95005">
        <ele>1416.16</ele>
        <time>2021-01-06T11:57:10Z</time>
      </trkpt>
      <trkpt lat="43.82724" lon="6.95007">
        <ele>1413.76</ele>
        <time>2021-01-06T11:57:14Z</time>
      </trkpt>
      <trkpt lat="43.82756" lon="6.95011">
        <ele>1411.83</ele>
        <time>2021-01-06T11:57:18Z</time>
      </trkpt>
      <trkpt lat="43.82832" lon="6.95021">
        <ele>1411.35</ele>
        <time>2021-01-06T11:57:31Z</time>
      </trkpt>
      <trkpt lat="43.82841" lon="6.95022">
        <ele>1409.43</ele>
        <time>2021-01-06T11:57:33Z</time>
      </trkpt>
      <trkpt lat="43.82885" lon="6.95028">
        <ele>1408.95</ele>
        <time>2021-01-06T11:57:42Z</time>
      </trkpt>
      <trkpt lat="43.82918" lon="6.95047">
        <ele>1405.58</ele>
        <time>2021-01-06T11:57:52Z</time>
      </trkpt>
      <trkpt lat="43.82958" lon="6.95072">
        <ele>1402.22</ele>
        <time>2021-01-06T11:58:01Z</time>
      </trkpt>
      <trkpt lat="43.82963" lon="6.95075">
        <ele>1402.22</ele>
        <time>2021-01-06T11:58:02Z</time>
      </trkpt>
      <trkpt lat="43.82978" lon="6.95084">
        <ele>1400.3</ele>
        <time>2021-01-06T11:58:05Z</time>
      </trkpt>
      <trkpt lat="43.82986" lon="6.95088">
        <ele>1402.22</ele>
        <time>2021-01-06T11:58:07Z</time>
      </trkpt>
      <trkpt lat="43.83011" lon="6.95098">
        <ele>1404.62</ele>
        <time>2021-01-06T11:58:15Z</time>
      </trkpt>
      <trkpt lat="43.83013" lon="6.95099">
        <ele>1404.62</ele>
        <time>2021-01-06T11:58:16Z</time>
      </trkpt>
      <trkpt lat="43.83015" lon="6.95099">
        <ele>1404.62</ele>
        <time>2021-01-06T11:58:17Z</time>
      </trkpt>
      <trkpt lat="43.83018" lon="6.95101">
        <ele>1404.62</ele>
        <time>2021-01-06T11:58:18Z</time>
      </trkpt>
      <trkpt lat="43.8302" lon="6.95101">
        <ele>1403.66</ele>
        <time>2021-01-06T11:58:19Z</time>
      </trkpt>
      <trkpt lat="43.83023" lon="6.95102">
        <ele>1404.62</ele>
        <time>2021-01-06T11:58:20Z</time>
      </trkpt>
      <trkpt lat="43.83025" lon="6.95103">
        <ele>1404.62</ele>
        <time>2021-01-06T11:58:21Z</time>
      </trkpt>
      <trkpt lat="43.83027" lon="6.95104">
        <ele>1404.62</ele>
        <time>2021-01-06T11:58:22Z</time>
      </trkpt>
      <trkpt lat="43.83029" lon="6.95104">
        <ele>1404.62</ele>
        <time>2021-01-06T11:58:23Z</time>
      </trkpt>
      <trkpt lat="43.83032" lon="6.95105">
        <ele>1404.62</ele>
        <time>2021-01-06T11:58:24Z</time>
      </trkpt>
      <trkpt lat="43.83034" lon="6.95105">
        <ele>1404.62</ele>
        <time>2021-01-06T11:58:25Z</time>
      </trkpt>
      <trkpt lat="43.83037" lon="6.95106">
        <ele>1404.62</ele>
        <time>2021-01-06T11:58:26Z</time>
      </trkpt>
      <trkpt lat="43.8304" lon="6.95106">
        <ele>1404.62</ele>
        <time>2021-01-06T11:58:27Z</time>
      </trkpt>
      <trkpt lat="43.83042" lon="6.95107">
        <ele>1404.62</ele>
        <time>2021-01-06T11:58:28Z</time>
      </trkpt>
      <trkpt lat="43.83045" lon="6.95107">
        <ele>1404.62</ele>
        <time>2021-01-06T11:58:29Z</time>
      </trkpt>
      <trkpt lat="43.83047" lon="6.95108">
        <ele>1404.62</ele>
        <time>2021-01-06T11:58:30Z</time>
      </trkpt>
      <trkpt lat="43.8305" lon="6.95109">
        <ele>1404.62</ele>
        <time>2021-01-06T11:58:31Z</time>
      </trkpt>
      <trkpt lat="43.83052" lon="6.95109">
        <ele>1406.07</ele>
        <time>2021-01-06T11:58:32Z</time>
      </trkpt>
      <trkpt lat="43.83055" lon="6.95109">
        <ele>1405.58</ele>
        <time>2021-01-06T11:58:33Z</time>
      </trkpt>
      <trkpt lat="43.83061" lon="6.9511">
        <ele>1404.14</ele>
        <time>2021-01-06T11:58:35Z</time>
      </trkpt>
      <trkpt lat="43.8309" lon="6.95111">
        <ele>1404.14</ele>
        <time>2021-01-06T11:58:44Z</time>
      </trkpt>
      <trkpt lat="43.83096" lon="6.95111">
        <ele>1403.66</ele>
        <time>2021-01-06T11:58:46Z</time>
      </trkpt>
      <trkpt lat="43.83099" lon="6.95111">
        <ele>1405.58</ele>
        <time>2021-01-06T11:58:47Z</time>
      </trkpt>
      <trkpt lat="43.83102" lon="6.95111">
        <ele>1404.14</ele>
        <time>2021-01-06T11:58:48Z</time>
      </trkpt>
      <trkpt lat="43.83105" lon="6.95112">
        <ele>1404.14</ele>
        <time>2021-01-06T11:58:49Z</time>
      </trkpt>
      <trkpt lat="43.83109" lon="6.95112">
        <ele>1403.18</ele>
        <time>2021-01-06T11:58:50Z</time>
      </trkpt>
      <trkpt lat="43.83113" lon="6.95113">
        <ele>1403.18</ele>
        <time>2021-01-06T11:58:51Z</time>
      </trkpt>
      <trkpt lat="43.83116" lon="6.95114">
        <ele>1403.18</ele>
        <time>2021-01-06T11:58:52Z</time>
      </trkpt>
      <trkpt lat="43.8312" lon="6.95116">
        <ele>1403.66</ele>
        <time>2021-01-06T11:58:53Z</time>
      </trkpt>
      <trkpt lat="43.83123" lon="6.95118">
        <ele>1403.18</ele>
        <time>2021-01-06T11:58:54Z</time>
      </trkpt>
      <trkpt lat="43.83135" lon="6.95151">
        <ele>1405.1</ele>
        <time>2021-01-06T11:59:05Z</time>
      </trkpt>
      <trkpt lat="43.83138" lon="6.95165">
        <ele>1405.58</ele>
        <time>2021-01-06T11:59:18Z</time>
      </trkpt>
    </trkseg>
  </trk>
</gpx>